createdAt,value
2023-03-02T00:01:48.087Z,59.07
2023-03-02T00:04:20.811Z,61.17
2023-03-02T00:06:49.759Z,61.47
2023-03-02T00:09:18.189Z,59.67
2023-03-02T00:11:46.612Z,66.03
2023-03-02T00:14:14.577Z,66.47
2023-03-02T00:16:42.567Z,65.97
2023-03-02T00:19:11.909Z,66.73
2023-03-02T00:21:40.664Z,62.63
2023-03-02T00:24:09.137Z,62.20
2023-03-02T00:26:37.534Z,60.20
2023-03-02T00:29:05.701Z,56.93
2023-03-02T00:31:33.988Z,59.60
2023-03-02T00:34:02.046Z,60.03
2023-03-02T00:36:31.446Z,56.97
2023-03-02T00:38:59.422Z,56.10
2023-03-02T00:41:27.834Z,61.60
2023-03-02T00:43:56.104Z,57.53
2023-03-02T00:46:25.717Z,58.10
2023-03-02T00:48:53.943Z,51.50
2023-03-02T00:51:22.089Z,55.63
2023-03-02T00:53:51.468Z,58.20
2023-03-02T00:56:19.430Z,55.67
2023-03-02T00:58:47.398Z,54.17
2023-03-02T01:01:17.120Z,53.17
2023-03-02T01:03:46.879Z,54.53
2023-03-02T01:06:17.021Z,53.13
2023-03-02T01:08:45.285Z,51.63
2023-03-02T01:11:19.749Z,51.27
2023-03-02T01:13:47.770Z,50.80
2023-03-02T01:16:16.601Z,52.87
2023-03-02T01:18:44.621Z,53.10
2023-03-02T01:21:14.584Z,53.70
2023-03-02T01:23:42.628Z,56.10
2023-03-02T01:26:10.683Z,53.60
2023-03-02T01:28:40.190Z,53.53
2023-03-02T01:31:08.217Z,51.80
2023-03-02T01:33:36.219Z,49.10
2023-03-02T01:36:04.326Z,48.37
2023-03-02T01:38:32.333Z,48.43
2023-03-02T01:41:00.305Z,46.80
2023-03-02T01:43:29.475Z,43.17
2023-03-02T01:46:01.699Z,47.10
2023-03-02T01:48:33.270Z,48.33
2023-03-02T01:51:02.997Z,47.27
2023-03-02T01:53:33.622Z,51.70
2023-03-02T01:56:03.663Z,50.73
2023-03-02T01:58:35.686Z,54.00
2023-03-02T02:01:05.893Z,57.37
2023-03-02T02:03:33.930Z,57.07
2023-03-02T02:06:10.332Z,57.30
2023-03-02T02:08:39.553Z,62.67
2023-03-02T02:11:08.016Z,56.83
2023-03-02T02:13:36.253Z,61.23
2023-03-02T02:16:06.789Z,62.70
2023-03-02T02:18:36.963Z,63.50
2023-03-02T02:21:06.009Z,61.40
2023-03-02T02:23:40.775Z,60.90
2023-03-02T02:26:18.355Z,61.70
2023-03-02T02:28:51.867Z,58.03
2023-03-02T02:31:23.726Z,61.30
2023-03-02T02:33:55.559Z,60.83
2023-03-02T02:36:26.390Z,63.37
2023-03-02T02:38:57.844Z,61.80
2023-03-02T02:41:31.579Z,60.47
2023-03-02T02:43:59.631Z,61.97
2023-03-02T02:46:27.765Z,61.20
2023-03-02T02:48:55.734Z,62.37
2023-03-02T02:51:27.238Z,63.93
2023-03-02T02:53:58.995Z,61.67
2023-03-02T02:56:35.940Z,64.10
2023-03-02T02:59:08.053Z,67.00
2023-03-02T03:01:36.651Z,64.87
2023-03-02T03:04:06.784Z,65.70
2023-03-02T03:06:42.306Z,66.67
2023-03-02T03:09:11.815Z,69.77
2023-03-02T03:11:44.417Z,68.80
2023-03-02T03:14:15.414Z,69.33
2023-03-02T03:16:45.619Z,70.73
2023-03-02T03:19:19.503Z,75.00
2023-03-02T03:21:50.197Z,74.53
2023-03-02T03:24:18.485Z,75.17
2023-03-02T03:26:47.871Z,74.27
2023-03-02T03:29:18.306Z,71.97
2023-03-02T03:31:46.432Z,71.30
2023-03-02T03:34:14.381Z,72.10
2023-03-02T03:36:43.377Z,73.47
2023-03-02T03:39:12.504Z,71.13
2023-03-02T03:41:40.504Z,72.17
2023-03-02T03:44:10.526Z,72.27
2023-03-02T03:46:38.745Z,68.97
2023-03-02T03:49:07.025Z,69.07
2023-03-02T03:51:35.567Z,68.00
2023-03-02T03:54:03.735Z,70.33
2023-03-02T03:56:34.232Z,66.80
2023-03-02T03:59:07.318Z,70.63
2023-03-02T04:01:39.542Z,74.80
2023-03-02T04:04:10.930Z,70.63
2023-03-02T04:06:39.159Z,70.07
2023-03-02T04:09:07.258Z,70.93
2023-03-02T04:11:36.984Z,72.13
2023-03-02T04:14:05.105Z,73.70
2023-03-02T04:16:34.090Z,79.13
2023-03-02T04:19:04.755Z,75.30
2023-03-02T04:21:32.702Z,73.03
2023-03-02T04:24:00.914Z,73.83
2023-03-02T04:26:28.857Z,73.43
2023-03-02T04:28:56.815Z,68.63
2023-03-02T04:31:24.812Z,68.87
2023-03-02T04:33:52.834Z,68.50
2023-03-02T04:36:22.185Z,65.57
2023-03-02T04:38:50.724Z,67.60
2023-03-02T04:41:19.515Z,66.93
2023-03-02T04:43:47.473Z,68.70
2023-03-02T04:46:16.906Z,68.33
2023-03-02T04:48:45.013Z,68.07
2023-03-02T04:51:20.070Z,64.37
2023-03-02T04:53:49.388Z,64.87
2023-03-02T04:56:17.347Z,61.80
2023-03-02T04:58:45.429Z,63.13
2023-03-02T05:01:14.058Z,60.70
2023-03-02T05:03:42.117Z,65.83
2023-03-02T05:06:10.963Z,64.80
2023-03-02T05:08:39.625Z,67.13
2023-03-02T05:11:09.803Z,66.80
2023-03-02T05:13:37.819Z,67.10
2023-03-02T05:16:06.559Z,68.67
2023-03-02T05:18:34.525Z,64.83
2023-03-02T05:21:02.500Z,68.07
2023-03-02T05:23:31.651Z,67.13
2023-03-02T05:25:59.613Z,68.50
2023-03-02T05:28:29.636Z,65.70
2023-03-02T05:30:57.624Z,68.17
2023-03-02T05:33:25.579Z,68.80
2023-03-02T05:35:53.793Z,66.90
2023-03-02T05:38:22.057Z,68.90
2023-03-02T05:40:50.285Z,68.70
2023-03-02T05:43:21.737Z,67.73
2023-03-02T05:45:51.099Z,66.00
2023-03-02T05:48:19.115Z,66.07
2023-03-02T05:50:47.098Z,63.13
2023-03-02T05:53:15.111Z,65.57
2023-03-02T05:55:43.078Z,63.90
2023-03-02T05:58:14.858Z,66.67
2023-03-02T06:00:42.903Z,68.10
2023-03-02T06:03:12.561Z,66.47
2023-03-02T06:05:41.152Z,67.80
2023-03-02T06:08:09.268Z,70.07
2023-03-02T06:10:37.838Z,68.77
2023-03-02T06:13:05.828Z,68.97
2023-03-02T06:15:33.844Z,70.60
2023-03-02T06:18:01.870Z,68.23
2023-03-02T06:20:31.291Z,68.20
2023-03-02T06:22:59.483Z,63.93
2023-03-02T06:25:27.778Z,64.17
2023-03-02T06:27:55.783Z,62.73
2023-03-02T06:30:28.021Z,66.23
2023-03-02T06:32:55.985Z,62.77
2023-03-02T06:35:24.877Z,67.17
2023-03-02T06:37:54.355Z,68.63
2023-03-02T06:40:22.616Z,67.07
2023-03-02T06:42:50.599Z,66.20
2023-03-02T06:45:18.696Z,62.70
2023-03-02T06:47:46.763Z,63.90
2023-03-02T06:50:14.825Z,63.23
2023-03-02T06:52:42.751Z,67.00
2023-03-02T06:55:12.283Z,66.17
2023-03-02T06:57:40.892Z,63.07
2023-03-02T07:00:14.271Z,62.20
2023-03-02T07:02:42.292Z,59.40
2023-03-02T07:05:10.680Z,59.63
2023-03-02T07:07:38.894Z,56.77
2023-03-02T07:10:08.772Z,55.00
2023-03-02T07:12:39.507Z,55.10
2023-03-02T07:15:12.338Z,55.60
2023-03-02T07:17:41.307Z,56.67
2023-03-02T07:20:11.120Z,52.57
2023-03-02T07:22:39.444Z,55.10
2023-03-02T07:25:08.912Z,52.33
2023-03-02T07:27:37.212Z,52.90
2023-03-02T07:30:07.700Z,56.30
2023-03-02T07:32:35.701Z,54.73
2023-03-02T07:35:04.123Z,51.23
2023-03-02T07:37:32.113Z,51.10
2023-03-02T07:40:00.903Z,48.23
2023-03-02T07:42:29.138Z,50.23
2023-03-02T07:44:57.103Z,53.67
2023-03-02T07:47:26.685Z,50.13
2023-03-02T07:49:54.689Z,50.23
2023-03-02T07:52:22.670Z,48.17
2023-03-02T07:54:50.713Z,52.07
2023-03-02T07:57:18.745Z,50.90
2023-03-02T07:59:46.720Z,53.03
2023-03-02T08:02:16.892Z,52.43
2023-03-02T08:04:46.187Z,58.67
2023-03-02T08:07:14.180Z,57.70
2023-03-02T08:09:42.141Z,57.17
2023-03-02T08:12:10.107Z,58.97
2023-03-02T08:14:39.350Z,58.03
2023-03-02T08:17:07.714Z,53.37
2023-03-02T08:19:35.819Z,55.53
2023-03-02T08:22:05.150Z,48.87
2023-03-02T08:24:33.232Z,50.53
2023-03-02T08:27:02.016Z,49.93
2023-03-02T08:29:30.123Z,51.70
2023-03-02T08:31:58.999Z,47.53
2023-03-02T08:34:27.397Z,49.40
2023-03-02T08:36:55.415Z,49.87
2023-03-02T08:39:25.200Z,49.20
2023-03-02T08:41:53.464Z,47.70
2023-03-02T08:44:22.296Z,48.60
2023-03-02T08:46:50.746Z,46.47
2023-03-02T08:49:19.846Z,48.77
2023-03-02T08:51:49.090Z,48.83
2023-03-02T08:54:17.275Z,49.20
2023-03-02T08:56:46.609Z,46.73
2023-03-02T08:59:15.031Z,45.00
2023-03-02T09:01:44.004Z,46.10
2023-03-02T09:04:12.443Z,44.03
2023-03-02T09:06:42.127Z,41.37
2023-03-02T09:09:11.506Z,39.40
2023-03-02T09:11:39.905Z,36.53
2023-03-02T09:14:09.257Z,34.07
2023-03-02T09:16:37.348Z,34.10
2023-03-02T09:19:05.401Z,31.73
2023-03-02T09:21:33.668Z,29.73
2023-03-02T09:24:01.986Z,27.87
2023-03-02T09:26:29.938Z,28.47
2023-03-02T09:28:58.351Z,29.17
2023-03-02T09:31:30.138Z,29.37
2023-03-02T09:33:58.425Z,28.63
2023-03-02T09:36:27.611Z,28.40
2023-03-02T09:38:56.031Z,28.17
2023-03-02T09:41:49.257Z,25.47
2023-03-02T09:44:40.749Z,26.00
2023-03-02T09:47:33.414Z,30.53
2023-03-02T09:50:12.278Z,27.07
2023-03-02T09:52:46.170Z,24.90
2023-03-02T09:55:17.448Z,23.97
2023-03-02T09:57:46.958Z,23.83
2023-03-02T10:00:19.829Z,22.30
2023-03-02T10:02:52.200Z,22.50
2023-03-02T10:05:23.802Z,21.77
2023-03-02T10:07:52.099Z,22.23
2023-03-02T10:10:30.267Z,21.97
2023-03-02T10:13:20.136Z,20.20
2023-03-02T10:16:02.249Z,19.83
2023-03-02T10:18:38.348Z,19.60
2023-03-02T10:21:12.038Z,18.77
2023-03-02T10:23:48.811Z,16.83
2023-03-02T10:26:36.101Z,15.97
2023-03-02T10:29:15.275Z,17.50
2023-03-02T10:31:46.089Z,17.53
2023-03-02T10:34:15.880Z,16.80
2023-03-02T10:36:47.673Z,16.00
2023-03-02T10:39:17.064Z,16.63
2023-03-02T10:41:51.196Z,15.97
2023-03-02T10:44:23.747Z,16.77
2023-03-02T10:46:53.829Z,17.43
2023-03-02T10:49:28.742Z,17.60
2023-03-02T10:51:59.112Z,16.73
2023-03-02T10:54:28.804Z,15.97
2023-03-02T10:57:00.556Z,17.13
2023-03-02T10:59:43.272Z,17.33
2023-03-02T11:02:17.473Z,15.93
2023-03-02T11:04:47.313Z,14.70
2023-03-02T11:07:18.327Z,14.63
2023-03-02T11:10:00.434Z,14.80
2023-03-02T11:12:29.687Z,15.03
2023-03-02T11:15:18.061Z,15.80
2023-03-02T11:17:47.978Z,15.93
2023-03-02T11:20:25.019Z,15.93
2023-03-02T11:23:15.772Z,15.87
2023-03-02T11:25:49.751Z,16.67
2023-03-02T11:28:32.910Z,16.93
2023-03-02T11:31:03.837Z,15.63
2023-03-02T11:33:38.469Z,16.07
2023-03-02T11:36:13.600Z,17.30
2023-03-02T11:38:48.172Z,17.70
2023-03-02T11:41:30.007Z,16.20
2023-03-02T11:44:02.389Z,15.00
2023-03-02T11:46:32.175Z,16.80
2023-03-02T11:49:05.927Z,16.73
2023-03-02T11:51:47.083Z,16.47
2023-03-02T11:54:34.014Z,16.27
2023-03-02T11:57:02.604Z,16.30
2023-03-02T11:59:31.729Z,17.03
2023-03-02T12:02:01.482Z,17.10
2023-03-02T12:04:33.446Z,16.93
2023-03-02T12:07:05.243Z,17.10
2023-03-02T12:09:36.646Z,18.17
2023-03-02T12:12:40.925Z,18.10
2023-03-02T12:15:36.254Z,17.47
2023-03-02T12:18:04.459Z,16.03
2023-03-02T12:20:34.599Z,16.20
2023-03-02T12:23:22.468Z,16.43
2023-03-02T12:25:51.720Z,17.87
2023-03-02T12:28:32.670Z,18.33
2023-03-02T12:31:07.303Z,18.00
2023-03-02T12:33:44.476Z,17.47
2023-03-02T12:36:15.686Z,16.83
2023-03-02T12:38:54.797Z,18.47
2023-03-02T12:41:35.731Z,18.83
2023-03-02T12:44:18.342Z,18.90
2023-03-02T12:46:48.364Z,18.87
2023-03-02T12:49:28.370Z,18.73
2023-03-02T12:51:58.094Z,18.47
2023-03-02T12:54:29.315Z,18.17
2023-03-02T12:57:06.311Z,19.70
2023-03-02T12:59:34.324Z,19.00
2023-03-02T13:02:16.543Z,18.87
2023-03-02T13:04:44.573Z,17.23
2023-03-02T13:07:18.513Z,18.17
2023-03-02T13:09:56.701Z,16.27
2023-03-02T13:12:27.145Z,15.00
2023-03-02T13:14:57.739Z,15.17
2023-03-02T13:17:29.589Z,15.37
2023-03-02T13:19:58.024Z,15.60
2023-03-02T13:22:27.190Z,15.63
2023-03-02T13:25:03.625Z,15.93
2023-03-02T13:27:33.939Z,15.20
2023-03-02T13:30:12.935Z,16.10
2023-03-02T13:32:43.316Z,15.30
2023-03-02T13:35:20.146Z,16.30
2023-03-02T13:37:48.215Z,14.97
2023-03-02T13:40:38.674Z,14.60
2023-03-02T13:43:37.419Z,14.87
2023-03-02T13:46:07.442Z,15.03
2023-03-02T13:48:35.466Z,15.27
2023-03-02T13:51:05.415Z,14.67
2023-03-02T13:53:38.028Z,14.67
2023-03-02T13:56:08.458Z,14.33
2023-03-02T13:58:39.473Z,14.53
2023-03-02T14:01:08.129Z,14.77
2023-03-02T14:03:36.116Z,15.77
2023-03-02T14:06:06.011Z,14.83
2023-03-02T14:08:34.041Z,14.43
2023-03-02T14:11:03.770Z,15.30
2023-03-02T14:13:38.433Z,14.60
2023-03-02T14:16:07.374Z,13.83
2023-03-02T14:18:39.945Z,14.33
2023-03-02T14:21:13.473Z,14.80
2023-03-02T14:23:42.040Z,13.87
2023-03-02T14:26:24.357Z,14.50
2023-03-02T14:29:04.521Z,14.23
2023-03-02T14:31:33.406Z,15.00
2023-03-02T14:34:01.542Z,14.80
2023-03-02T14:36:32.977Z,15.27
2023-03-02T14:39:03.934Z,15.53
2023-03-02T14:41:38.349Z,15.27
2023-03-02T14:44:12.893Z,16.37
2023-03-02T14:46:41.015Z,15.57
2023-03-02T14:49:08.979Z,15.13
2023-03-02T14:51:40.438Z,14.60
2023-03-02T14:54:13.866Z,15.63
2023-03-02T14:56:42.941Z,14.93
2023-03-02T14:59:14.729Z,14.67
2023-03-02T15:01:44.525Z,15.13
2023-03-02T15:04:12.574Z,14.70
2023-03-02T15:06:42.277Z,15.10
2023-03-02T15:09:12.532Z,15.20
2023-03-02T15:11:40.471Z,15.20
2023-03-02T15:14:08.413Z,18.43
2023-03-02T15:16:37.762Z,17.73
2023-03-02T15:19:05.737Z,17.57
2023-03-02T15:21:34.016Z,18.10
2023-03-02T15:24:02.273Z,22.97
2023-03-02T15:26:30.295Z,20.60
2023-03-02T15:28:58.288Z,20.63
2023-03-02T15:31:28.337Z,17.83
2023-03-02T15:33:57.877Z,19.47
2023-03-02T15:36:26.436Z,19.47
2023-03-02T15:38:55.122Z,19.53
2023-03-02T15:41:23.265Z,18.10
2023-03-02T15:43:52.182Z,18.00
2023-03-02T15:46:20.307Z,17.43
2023-03-02T15:48:48.335Z,18.43
2023-03-02T15:51:17.677Z,16.43
2023-03-02T15:53:45.794Z,16.80
2023-03-02T15:56:16.917Z,17.30
2023-03-02T15:58:48.036Z,17.60
2023-03-02T16:01:17.037Z,19.87
2023-03-02T16:03:45.481Z,18.17
2023-03-02T16:06:15.731Z,17.63
2023-03-02T16:08:45.396Z,17.83
2023-03-02T16:11:18.664Z,18.27
2023-03-02T16:13:46.852Z,18.03
2023-03-02T16:16:14.872Z,22.23
2023-03-02T16:18:42.880Z,21.70
2023-03-02T16:21:14.110Z,25.83
2023-03-02T16:23:42.091Z,41.90
2023-03-02T16:26:14.399Z,48.97
2023-03-02T16:28:42.492Z,34.67
2023-03-02T16:31:12.913Z,33.00
2023-03-02T16:33:42.129Z,28.60
2023-03-02T16:36:10.823Z,24.70
2023-03-02T16:38:39.963Z,31.60
2023-03-02T16:41:15.582Z,26.20
2023-03-02T16:43:47.513Z,45.03
2023-03-02T16:46:15.739Z,41.30
2023-03-02T16:48:44.557Z,31.60
2023-03-02T16:51:12.569Z,26.43
2023-03-02T16:53:40.942Z,26.47
2023-03-02T16:56:10.196Z,32.37
2023-03-02T16:58:39.864Z,33.70
2023-03-02T17:01:08.742Z,29.97
2023-03-02T17:03:36.832Z,26.13
2023-03-02T17:06:06.430Z,27.07
2023-03-02T17:08:34.791Z,26.23
2023-03-02T17:11:02.808Z,26.97
2023-03-02T17:13:31.187Z,39.40
2023-03-02T17:16:00.833Z,37.97
2023-03-02T17:18:30.111Z,32.93
2023-03-02T17:20:59.542Z,34.47
2023-03-02T17:23:28.176Z,34.20
2023-03-02T17:25:56.587Z,35.27
2023-03-02T17:28:24.736Z,36.30
2023-03-02T17:30:53.144Z,37.73
2023-03-02T17:33:22.435Z,35.67
2023-03-02T17:35:50.504Z,32.63
2023-03-02T17:38:18.645Z,31.43
2023-03-02T17:40:46.586Z,30.37
2023-03-02T17:43:14.532Z,30.57
2023-03-02T17:45:42.458Z,35.10
2023-03-02T17:48:10.480Z,35.23
2023-03-02T17:50:39.827Z,36.30
2023-03-02T17:53:07.793Z,39.23
2023-03-02T17:55:35.786Z,45.93
2023-03-02T17:58:03.726Z,37.97
2023-03-02T18:00:31.986Z,38.00
2023-03-02T18:03:00.011Z,35.60
2023-03-02T18:05:28.212Z,35.73
2023-03-02T18:07:57.494Z,40.17
2023-03-02T18:10:25.494Z,44.37
2023-03-02T18:12:54.490Z,46.83
2023-03-02T18:15:22.615Z,48.30
2023-03-02T18:17:50.698Z,47.47
2023-03-02T18:20:18.817Z,43.93
2023-03-02T18:22:46.797Z,41.60
2023-03-02T18:25:16.420Z,41.93
2023-03-02T18:27:44.494Z,41.00
2023-03-02T18:30:13.302Z,41.63
2023-03-02T18:32:41.280Z,39.23
2023-03-02T18:35:10.455Z,38.43
2023-03-02T18:37:38.487Z,37.73
2023-03-02T18:40:08.108Z,42.03
2023-03-02T18:42:37.426Z,46.97
2023-03-02T18:45:06.477Z,46.80
2023-03-02T18:47:36.498Z,43.83
2023-03-02T18:50:06.072Z,40.07
2023-03-02T18:52:34.036Z,41.43
2023-03-02T18:55:02.084Z,41.90
2023-03-02T18:57:30.046Z,41.03
2023-03-02T18:59:59.446Z,39.03
2023-03-02T19:02:28.500Z,39.63
2023-03-02T19:04:56.463Z,40.27
2023-03-02T19:07:24.448Z,40.17
2023-03-02T19:09:52.527Z,39.00
2023-03-02T19:12:20.654Z,40.97
2023-03-02T19:14:48.725Z,39.33
2023-03-02T19:17:18.079Z,40.10
2023-03-02T19:19:46.098Z,39.43
2023-03-02T19:22:16.545Z,39.37
2023-03-02T19:24:45.728Z,40.43
2023-03-02T19:27:13.886Z,44.00
2023-03-02T19:29:42.511Z,41.53
2023-03-02T19:32:14.272Z,42.23
2023-03-02T19:34:44.384Z,40.53
2023-03-02T19:37:12.445Z,42.83
2023-03-02T19:39:40.514Z,39.80
2023-03-02T19:42:08.837Z,41.17
2023-03-02T19:44:37.310Z,42.80
2023-03-02T19:47:06.229Z,43.13
2023-03-02T19:49:34.203Z,44.60
2023-03-02T19:52:03.544Z,47.53
2023-03-02T19:54:31.544Z,50.97
2023-03-02T19:56:59.794Z,49.33
2023-03-02T19:59:29.701Z,51.73
2023-03-02T20:01:59.470Z,51.80
2023-03-02T20:04:27.859Z,49.77
2023-03-02T20:06:55.909Z,48.37
2023-03-02T20:09:25.232Z,48.10
2023-03-02T20:11:53.180Z,46.30
2023-03-02T20:14:33.448Z,49.47
2023-03-02T20:17:02.010Z,50.47
2023-03-02T20:19:30.011Z,49.87
2023-03-02T20:21:57.966Z,49.23
2023-03-02T20:24:27.341Z,48.00
2023-03-02T20:26:55.404Z,50.53
2023-03-02T20:29:23.406Z,51.73
2023-03-02T20:31:51.652Z,54.30
2023-03-02T20:34:19.735Z,57.40
2023-03-02T20:36:47.952Z,52.00
2023-03-02T20:39:24.034Z,52.27
2023-03-02T20:41:53.504Z,50.47
2023-03-02T20:44:22.335Z,49.90
2023-03-02T20:46:54.300Z,48.40
2023-03-02T20:49:23.327Z,46.37
2023-03-02T20:51:54.806Z,47.27
2023-03-02T20:54:24.254Z,47.63
2023-03-02T20:56:54.017Z,42.87
2023-03-02T20:59:22.949Z,43.03
2023-03-02T21:01:51.163Z,43.00
2023-03-02T21:04:19.260Z,43.30
2023-03-02T21:06:47.359Z,45.60
2023-03-02T21:09:17.893Z,40.53
2023-03-02T21:11:46.468Z,41.80
2023-03-02T21:14:16.003Z,41.60
2023-03-02T21:16:45.128Z,40.67
2023-03-02T21:19:16.233Z,40.53
2023-03-02T21:21:44.335Z,38.97
2023-03-02T21:24:16.638Z,39.27
2023-03-02T21:26:45.142Z,41.90
2023-03-02T21:29:15.162Z,43.67
2023-03-02T21:31:43.979Z,44.13
2023-03-02T21:34:12.619Z,44.70
2023-03-02T21:36:40.605Z,45.43
2023-03-02T21:39:10.322Z,45.50
2023-03-02T21:41:40.279Z,46.27
2023-03-02T21:44:08.505Z,46.17
2023-03-02T21:46:39.187Z,45.17
2023-03-02T21:49:07.451Z,44.40
2023-03-02T21:51:35.647Z,46.33
2023-03-02T21:54:03.742Z,46.03
2023-03-02T21:56:31.794Z,43.83
2023-03-02T21:59:00.000Z,46.10
2023-03-02T22:01:29.776Z,45.43
2023-03-02T22:03:59.363Z,44.33
2023-03-02T22:06:29.500Z,45.73
2023-03-02T22:08:58.154Z,45.70
2023-03-02T22:11:28.992Z,47.70
2023-03-02T22:13:59.436Z,47.30
2023-03-02T22:16:29.196Z,46.00
2023-03-02T22:19:00.185Z,46.07
2023-03-02T22:21:32.019Z,48.00
2023-03-02T22:24:15.518Z,49.33
2023-03-02T22:26:45.007Z,47.50
2023-03-02T22:29:16.272Z,50.03
2023-03-02T22:31:47.115Z,45.73
2023-03-02T22:34:20.716Z,48.00
2023-03-02T22:36:48.931Z,46.13
2023-03-02T22:39:21.881Z,47.53
2023-03-02T22:41:50.844Z,47.47
2023-03-02T22:44:21.741Z,46.40
2023-03-02T22:46:49.913Z,46.73
2023-03-02T22:49:19.222Z,48.50
2023-03-02T22:51:47.206Z,48.63
2023-03-02T22:54:22.631Z,46.53
2023-03-02T22:56:52.369Z,48.17
2023-03-02T22:59:24.467Z,49.83
2023-03-02T23:01:53.635Z,47.17
2023-03-02T23:04:25.090Z,47.13
2023-03-02T23:06:54.843Z,45.87
2023-03-02T23:09:24.939Z,48.53
2023-03-02T23:11:54.682Z,46.17
2023-03-02T23:14:26.001Z,47.87
2023-03-02T23:16:58.124Z,49.37
2023-03-02T23:19:29.648Z,48.47
2023-03-02T23:21:58.587Z,49.97
2023-03-02T23:24:27.262Z,50.37
2023-03-02T23:26:55.246Z,47.17
2023-03-02T23:29:23.629Z,49.03
2023-03-02T23:31:51.711Z,49.70
2023-03-02T23:34:19.817Z,49.70
2023-03-02T23:36:49.135Z,50.17
2023-03-02T23:39:17.626Z,49.43
2023-03-02T23:41:45.699Z,50.60
2023-03-02T23:44:13.706Z,49.83
2023-03-02T23:46:41.661Z,46.63
2023-03-02T23:49:10.082Z,48.60
2023-03-02T23:51:38.082Z,47.83
2023-03-02T23:54:08.010Z,50.27
2023-03-02T23:56:36.106Z,48.27
2023-03-02T23:59:04.297Z,50.90
